Time;durP1;ratioP1;P1;durP2;ratioP2;P2;SDS_P1;SDS_P2;PMS_P1;PMS_P2;Temp;Humidity;BMP_temperature;BMP_pressure;BME280_temperature;BME280_humidity;BME280_pressure;Samples;Min_cycle;Max_cycle;Signal;HPM_P1;HPM_P2
2022/08/08 00:01:48;;;;;;;;;3.75;3.75;;;;;21.39;37.68;101925.69;6314274;22;47348;-89
2022/08/08 00:04:31;;;;;;;;;2.50;2.50;;;;;21.41;37.80;101932.78;6339804;22;45434;-81
2022/08/08 00:07:15;;;;;;;;;3.25;3.25;;;;;21.33;38.16;101930.28;6311879;22;45547;-85
2022/08/08 00:10:07;;;;;;;;;5.75;4.75;;;;;21.34;38.15;101936.50;6339812;22;45381;-86
2022/08/08 00:12:41;;;;;;;;;2.75;2.75;;;;;21.17;38.44;101907.56;6339583;22;47240;-86
2022/08/08 00:15:11;;;;;;;;;5.00;5.00;;;;;21.32;38.36;101933.88;6312187;22;45310;-86
2022/08/08 00:17:44;;;;;;;;;4.50;3.50;;;;;21.29;38.07;101931.28;6341422;22;45397;-86
2022/08/08 00:20:11;;;;;;;;;4.50;4.00;;;;;21.20;37.90;101915.50;6341385;22;45619;-85
2022/08/08 00:22:45;;;;;;;;;3.00;3.00;;;;;21.28;38.61;101932.22;6312145;22;46868;-86
2022/08/08 00:25:19;;;;;;;;;2.50;2.50;;;;;21.14;38.55;101905.84;6311151;22;45926;-85
2022/08/08 00:27:49;;;;;;;;;4.00;4.00;;;;;21.08;38.64;101903.31;6337741;22;45603;-86
2022/08/08 00:30:16;;;;;;;;;2.00;2.00;;;;;21.10;38.64;101908.66;6337440;22;45487;-85
2022/08/08 00:32:52;;;;;;;;;3.00;3.00;;;;;21.10;38.85;101919.34;6311522;22;47946;-86
2022/08/08 00:35:55;;;;;;;;;3.75;3.75;;;;;21.09;38.73;101922.94;6313278;22;45333;-85
2022/08/08 00:38:46;;;;;;;;;4.00;4.00;;;;;21.06;39.15;101925.72;6313417;22;45293;-86
2022/08/08 00:41:28;;;;;;;;;4.25;3.00;;;;;21.05;39.40;101923.97;6339871;22;45994;-86
2022/08/08 00:44:22;;;;;;;;;5.00;3.25;;;;;21.00;39.46;101912.50;6313520;22;48083;-86
2022/08/08 00:47:05;;;;;;;;;4.75;2.75;;;;;20.99;39.28;101919.66;6313531;22;45749;-86
2022/08/08 00:49:33;;;;;;;;;4.75;4.00;;;;;20.95;39.30;101911.75;6315296;22;45405;-86
2022/08/08 00:52:05;;;;;;;;;3.00;3.00;;;;;20.92;39.58;101904.69;6313535;22;45417;-86
2022/08/08 00:54:50;;;;;;;;;4.50;4.50;;;;;20.95;39.15;101898.38;6313426;22;47126;-86
2022/08/08 00:57:27;;;;;;;;;5.00;3.25;;;;;20.89;39.52;101899.41;6313697;22;45168;-86
2022/08/08 01:00:10;;;;;;;;;4.75;4.00;;;;;20.89;39.54;101902.09;6313325;22;45236;-86
2022/08/08 01:03:13;;;;;;;;;5.00;3.00;;;;;20.85;40.05;101905.78;6315830;22;45697;-87
2022/08/08 01:06:06;;;;;;;;;2.50;2.50;;;;;20.82;40.26;101908.53;6313583;22;48017;-86
2022/08/08 01:09:14;;;;;;;;;3.00;3.00;;;;;20.78;40.33;101907.75;6313490;22;45258;-85
2022/08/08 01:12:09;;;;;;;;;5.00;5.00;;;;;20.74;40.36;101910.53;6313271;22;45382;-86
2022/08/08 01:14:50;;;;;;;;;4.50;4.50;;;;;20.71;40.31;101906.16;6314163;22;45170;-86
2022/08/08 01:17:18;;;;;;;;;5.50;5.00;;;;;20.65;40.08;101895.63;6343585;22;45252;-87
2022/08/08 01:20:05;;;;;;;;;3.25;3.25;;;;;20.69;40.54;101897.31;6314260;22;45182;-86
2022/08/08 01:22:57;;;;;;;;;4.00;4.00;;;;;20.67;40.17;101900.03;6341858;22;45255;-86
2022/08/08 01:26:01;;;;;;;;;4.00;4.00;;;;;20.67;40.73;101909.84;6313996;22;45271;-86
2022/08/08 01:28:59;;;;;;;;;4.00;4.00;;;;;20.62;40.43;101890.38;6313803;22;46947;-86
2022/08/08 01:31:49;;;;;;;;;4.00;4.00;;;;;20.64;40.60;101896.56;6313885;22;45219;-87
2022/08/08 01:34:46;;;;;;;;;4.25;3.00;;;;;20.62;41.01;101895.72;6313752;22;45320;-86
2022/08/08 01:37:33;;;;;;;;;6.00;3.25;;;;;20.58;41.22;101894.94;6313688;22;45503;-86
2022/08/08 01:39:59;;;;;;;;;4.00;4.00;;;;;20.51;41.23;101893.28;6312981;22;47208;-86
2022/08/08 01:42:37;;;;;;;;;4.75;4.75;;;;;20.55;41.12;101897.66;6313996;22;45456;-86
2022/08/08 01:45:26;;;;;;;;;5.00;4.00;;;;;20.38;41.06;101878.50;6313853;22;45168;-86
2022/08/08 01:48:22;;;;;;;;;5.75;5.00;;;;;20.42;41.28;101894.44;6312935;22;45572;-87
2022/08/08 01:51:13;;;;;;;;;5.00;4.00;;;;;20.48;40.89;101907.63;6313098;22;47152;-87
2022/08/08 01:54:00;;;;;;;;;4.50;4.50;;;;;20.48;41.40;101912.97;6313940;22;45277;-86
2022/08/08 01:56:44;;;;;;;;;5.75;5.00;;;;;20.47;41.52;101910.34;6315030;22;45335;-86
2022/08/08 01:59:38;;;;;;;;;4.75;4.00;;;;;20.27;41.56;101879.66;6339659;22;45432;-87
2022/08/08 02:02:38;;;;;;;;;4.75;4.75;;;;;20.40;41.18;101904.28;6313268;22;48213;-88
2022/08/08 02:05:44;;;;;;;;;4.25;4.25;;;;;20.36;41.64;101907.94;6313561;22;45856;-87
2022/08/08 02:08:20;;;;;;;;;6.00;4.25;;;;;20.28;41.58;101902.78;6312803;22;45276;-87
2022/08/08 02:11:00;;;;;;;;;5.00;4.00;;;;;20.30;41.98;101905.44;6315829;22;45599;-87
2022/08/08 02:13:36;;;;;;;;;6.00;4.25;;;;;20.30;41.73;101905.44;6313439;22;46321;-87
2022/08/08 02:16:47;;;;;;;;;5.25;4.75;;;;;20.27;41.76;101910.88;6313714;22;45292;-88
2022/08/08 02:19:26;;;;;;;;;4.25;4.25;;;;;20.16;41.82;101891.53;6333304;22;45207;-87
2022/08/08 02:25:08;;;;;;;;;4.00;4.00;;;;;20.18;42.01;101897.72;6343201;22;45165;-88
2022/08/08 02:27:41;;;;;;;;;5.25;5.00;;;;;20.19;42.11;101902.16;6313704;22;45379;-87
2022/08/08 02:30:30;;;;;;;;;3.25;3.25;;;;;20.06;42.14;101885.53;6313542;22;45429;-88
2022/08/08 02:33:01;;;;;;;;;5.50;4.75;;;;;20.07;42.29;101891.75;6313398;22;45975;-87
2022/08/08 02:35:51;;;;;;;;;8.50;6.00;;;;;20.11;42.48;101907.69;6313588;22;48000;-87
2022/08/08 02:38:46;;;;;;;;;5.00;5.00;;;;;20.10;42.77;101911.28;6315312;22;45204;-87
2022/08/08 02:41:43;;;;;;;;;3.50;3.25;;;;;19.95;42.72;101895.63;6313581;22;45232;-86
2022/08/08 02:44:30;;;;;;;;;5.00;5.00;;;;;20.02;42.59;101914.16;6313334;22;45214;-87
2022/08/08 02:47:08;;;;;;;;;3.75;3.75;;;;;19.97;43.03;101915.19;6313518;22;47393;-88
2022/08/08 02:50:07;;;;;;;;;6.25;5.75;;;;;19.78;43.06;101880.88;6314080;22;45359;-87
2022/08/08 02:52:38;;;;;;;;;3.00;3.00;;;;;19.93;43.35;101905.47;6314724;22;45196;-87
2022/08/08 02:55:26;;;;;;;;;4.50;4.50;;;;;19.72;43.23;101877.44;6314346;22;45365;-85
2022/08/08 02:58:16;;;;;;;;;5.25;4.50;;;;;19.90;43.31;101911.75;6340780;22;47249;-86
2022/08/08 03:01:36;;;;;;;;;6.00;5.50;;;;;19.87;43.44;101911.84;6313965;22;45439;-86
2022/08/08 03:04:41;;;;;;;;;4.00;4.00;;;;;19.80;43.05;101903.06;6315018;22;44730;-86
2022/08/08 03:07:32;;;;;;;;;6.75;5.75;;;;;19.77;43.57;101892.47;6315499;22;45197;-86
2022/08/08 03:10:23;;;;;;;;;4.00;4.00;;;;;19.80;43.69;101911.09;6315037;22;47224;-87
2022/08/08 03:13:21;;;;;;;;;5.25;5.00;;;;;19.56;43.83;101877.75;6315126;22;45269;-86
2022/08/08 03:16:19;;;;;;;;;5.00;5.00;;;;;19.72;44.00;101913.06;6314956;22;45326;-86
2022/08/08 03:19:14;;;;;;;;;4.75;4.00;;;;;19.51;43.89;101890.38;6316213;22;45362;-87
2022/08/08 03:21:39;;;;;;;;;6.50;6.50;;;;;19.70;43.73;101917.59;6292777;22;46435;-87
2022/08/08 03:24:05;;;;;;;;;6.00;5.00;;;;;19.59;44.00;101898.19;6314517;22;45502;-87
2022/08/08 03:26:38;;;;;;;;;7.00;6.00;;;;;19.39;43.51;101872.81;6315589;22;45227;-86
2022/08/08 03:29:07;;;;;;;;;6.00;6.00;;;;;19.42;44.09;101881.69;6314706;22;45459;-87
2022/08/08 03:34:18;;;;;;;;;9.75;8.75;;;;;19.64;43.95;101922.13;6344475;22;45171;-86
2022/08/08 03:36:43;;;;;;;;;4.50;4.50;;;;;19.44;44.31;101901.22;6314841;22;45184;-87
2022/08/08 03:39:13;;;;;;;;;8.50;6.50;;;;;19.43;44.25;101894.09;6341831;22;45705;-86
2022/08/08 03:41:39;;;;;;;;;7.00;7.00;;;;;19.58;44.12;101918.69;6342736;22;45428;-87
2022/08/08 03:44:06;;;;;;;;;6.50;6.25;;;;;19.59;44.20;101920.47;6341320;22;45196;-87
2022/08/08 03:46:44;;;;;;;;;5.25;5.25;;;;;19.58;44.23;101921.38;6316539;22;45196;-86
2022/08/08 03:49:20;;;;;;;;;4.25;4.00;;;;;19.52;44.66;101920.63;6315221;22;45553;-86
2022/08/08 03:51:51;;;;;;;;;8.25;7.25;;;;;19.22;44.63;101882.09;6341167;22;47120;-87
2022/08/08 03:54:16;;;;;;;;;7.00;7.00;;;;;19.33;44.96;101897.00;6341048;22;45158;-87
2022/08/08 03:56:42;;;;;;;;;6.25;6.00;;;;;19.37;44.76;101906.69;6314885;22;45252;-87
2022/08/08 03:59:08;;;;;;;;;6.00;6.00;;;;;19.30;44.61;101899.75;6315046;22;45256;-87
2022/08/08 04:01:38;;;;;;;;;6.25;6.25;;;;;19.46;44.80;101921.66;6316529;22;47082;-86
2022/08/08 04:04:04;;;;;;;;;6.50;5.00;;;;;19.29;45.32;101897.09;6314670;22;45231;-85
2022/08/08 04:06:29;;;;;;;;;6.25;4.25;;;;;19.48;45.12;101941.16;6340931;22;45205;-86
2022/08/08 04:08:55;;;;;;;;;8.50;7.00;;;;;19.25;44.95;101898.97;6314878;22;45164;-85
2022/08/08 04:11:20;;;;;;;;;5.50;5.50;;;;;19.32;45.11;101918.38;6319223;22;46965;-86
2022/08/08 04:13:46;;;;;;;;;5.75;5.00;;;;;19.25;44.96;101908.75;6321509;22;45775;-85
2022/08/08 04:16:11;;;;;;;;;7.00;7.00;;;;;19.39;45.16;101938.72;6348420;22;45220;-86
2022/08/08 04:18:36;;;;;;;;;9.00;6.25;;;;;19.24;44.96;101906.97;6323101;22;45489;-85
2022/08/08 04:21:02;;;;;;;;;7.25;7.25;;;;;19.33;45.61;101936.19;6326353;22;46951;-86
2022/08/08 04:23:27;;;;;;;;;7.25;7.00;;;;;19.31;45.22;101941.53;6327825;22;45504;-86
2022/08/08 04:25:53;;;;;;;;;6.25;5.00;;;;;19.29;45.14;101930.00;6352731;22;45207;-86
2022/08/08 04:28:18;;;;;;;;;6.00;6.00;;;;;19.29;45.09;101947.81;6334779;22;45282;-86
2022/08/08 04:30:44;;;;;;;;;8.25;7.25;;;;;19.31;45.22;101957.56;6363619;22;46808;-87
2022/08/08 04:33:09;;;;;;;;;8.25;6.50;;;;;19.18;45.43;101929.34;6332865;22;44581;-86
2022/08/08 04:35:34;;;;;;;;;9.50;8.25;;;;;18.96;45.40;101894.22;6362562;22;45429;-87
2022/08/08 04:38:00;;;;;;;;;6.75;6.50;;;;;19.27;45.35;101953.22;6364139;22;44769;-85
2022/08/08 04:40:25;;;;;;;;;6.25;6.25;;;;;19.21;45.76;101939.09;6364742;22;47176;-86
2022/08/08 04:42:51;;;;;;;;;7.50;6.50;;;;;19.23;45.37;101955.97;6323287;22;45280;-86
2022/08/08 04:45:16;;;;;;;;;7.25;6.75;;;;;19.00;45.95;101913.72;6343090;22;45160;-85
2022/08/08 04:47:42;;;;;;;;;7.00;6.75;;;;;18.84;45.67;101895.31;6314361;22;45433;-85
2022/08/08 04:50:07;;;;;;;;;7.50;7.50;;;;;19.17;45.99;101951.63;6340232;22;46912;-86
2022/08/08 04:52:33;;;;;;;;;7.00;7.00;;;;;19.15;45.98;101958.78;6340510;22;45255;-87
2022/08/08 04:54:58;;;;;;;;;10.00;8.25;;;;;18.81;45.87;101902.50;6340763;22;45314;-86
2022/08/08 04:57:24;;;;;;;;;8.50;6.75;;;;;18.91;45.84;101915.66;6314820;22;45483;-87
2022/08/08 04:59:50;;;;;;;;;7.50;7.00;;;;;18.92;46.09;101922.75;6340147;22;48296;-87
2022/08/08 05:02:15;;;;;;;;;7.50;7.50;;;;;19.12;46.18;101965.06;6314433;22;45219;-87
2022/08/08 05:04:41;;;;;;;;;8.50;7.25;;;;;19.11;45.91;101960.66;6314181;22;45171;-86
2022/08/08 05:07:07;;;;;;;;;9.25;8.25;;;;;19.03;46.30;101961.69;6314031;22;45307;-86
2022/08/08 05:09:33;;;;;;;;;6.50;6.50;;;;;18.82;46.32;101923.84;6343892;22;45108;-87
2022/08/08 05:11:58;;;;;;;;;9.50;7.50;;;;;18.80;45.98;101928.31;6342900;22;45148;-85
2022/08/08 05:14:24;;;;;;;;;10.25;10.25;;;;;19.00;46.30;101967.09;6340599;22;45113;-87
2022/08/08 05:16:49;;;;;;;;;7.50;6.50;;;;;18.64;46.20;101919.69;6314722;22;45190;-86
2022/08/08 05:19:15;;;;;;;;;8.25;8.25;;;;;19.01;46.22;101980.41;6314175;22;46840;-88
2022/08/08 05:21:41;;;;;;;;;7.00;6.25;;;;;18.86;46.25;101959.34;6340404;22;45460;-87
2022/08/08 05:24:08;;;;;;;;;7.75;7.75;;;;;18.68;46.58;101931.16;6343367;22;45200;-87
2022/08/08 05:26:34;;;;;;;;;7.25;7.25;;;;;18.99;46.56;101978.69;6314657;22;45864;-88
2022/08/08 05:29:02;;;;;;;;;6.00;5.00;;;;;18.98;46.51;101977.81;6313504;22;47157;-87
2022/08/08 05:31:29;;;;;;;;;8.00;8.00;;;;;18.91;46.55;101971.69;6313933;22;45218;-87
2022/08/08 05:33:54;;;;;;;;;8.00;7.00;;;;;18.85;46.71;101963.81;6340878;22;45194;-87
2022/08/08 05:36:24;;;;;;;;;7.50;7.50;;;;;18.76;46.52;101953.28;6313900;22;45403;-87
2022/08/08 05:38:50;;;;;;;;;3.50;3.50;;;;;18.87;46.59;101969.09;6340558;22;47443;-87
2022/08/08 05:41:22;;;;;;;;;6.25;6.00;;;;;18.87;46.92;101970.00;6314002;22;45217;-86
2022/08/08 05:43:48;;;;;;;;;6.00;6.00;;;;;18.60;46.91;101923.31;6313878;22;45347;-86
2022/08/08 05:46:15;;;;;;;;;8.75;7.50;;;;;19.02;47.08;102002.63;6313837;22;45397;-89
2022/08/08 05:48:42;;;;;;;;;9.50;9.25;;;;;18.98;46.76;101983.16;6313962;22;46269;-86
2022/08/08 05:51:08;;;;;;;;;10.00;10.00;;;;;18.82;47.27;101952.28;6314741;22;45249;-88
2022/08/08 05:53:33;;;;;;;;;10.25;8.00;;;;;19.10;47.17;101998.91;6315015;22;45294;-88
2022/08/08 05:56:00;;;;;;;;;10.50;9.25;;;;;19.14;47.05;101991.75;6314508;22;45153;-88
2022/08/08 05:58:30;;;;;;;;;8.50;8.50;;;;;19.17;46.97;101997.03;6313983;22;47477;-88
2022/08/08 06:00:58;;;;;;;;;9.00;8.00;;;;;19.13;47.03;101987.28;6313838;22;45195;-89
2022/08/08 06:03:28;;;;;;;;;10.25;8.00;;;;;18.89;47.03;101944.16;6340354;22;45236;-88
2022/08/08 06:05:54;;;;;;;;;7.25;6.50;;;;;19.22;46.68;101996.91;6316597;22;45366;-88
2022/08/08 06:08:27;;;;;;;;;7.50;7.25;;;;;19.23;46.70;102010.25;6313850;22;48711;-86
2022/08/08 06:10:54;;;;;;;;;8.00;8.00;;;;;19.15;46.93;101988.16;6313915;22;45413;-84
2022/08/08 06:13:20;;;;;;;;;9.00;7.50;;;;;19.11;46.49;101976.66;6342017;22;45533;-87
2022/08/08 06:15:47;;;;;;;;;7.75;7.00;;;;;19.29;47.08;102010.13;6313643;22;45263;-87
2022/08/08 06:18:14;;;;;;;;;9.50;8.50;;;;;19.12;46.80;101977.53;6314297;22;47300;-89
2022/08/08 06:20:40;;;;;;;;;8.25;7.25;;;;;19.31;47.07;102004.75;6339289;22;45351;-88
2022/08/08 06:23:06;;;;;;;;;8.00;7.00;;;;;19.31;46.79;102002.97;6342006;22;45239;-88
2022/08/08 06:25:35;;;;;;;;;8.00;8.00;;;;;19.46;46.54;102023.16;6314583;22;45393;-87
2022/08/08 06:28:11;;;;;;;;;7.25;7.25;;;;;19.29;46.79;101990.53;6341543;22;45329;-84
2022/08/08 06:30:39;;;;;;;;;8.25;8.00;;;;;19.49;46.86;102014.19;6313352;22;45175;-87
2022/08/08 06:33:10;;;;;;;;;8.75;8.75;;;;;19.56;46.41;102026.50;6315738;22;45204;-87
2022/08/08 06:35:46;;;;;;;;;7.50;7.50;;;;;19.58;46.65;102024.69;6316223;22;45212;-88
2022/08/08 06:38:18;;;;;;;;;9.00;7.25;;;;;19.60;46.78;102026.41;6314849;22;47275;-88
2022/08/08 06:40:43;;;;;;;;;9.75;8.25;;;;;19.54;46.40;102009.59;6341220;22;45285;-89
2022/08/08 06:43:09;;;;;;;;;7.25;7.25;;;;;19.60;46.61;102015.72;6315527;22;45373;-89
2022/08/08 06:45:37;;;;;;;;;9.25;9.25;;;;;19.53;46.67;101994.50;6314529;22;45254;-85
2022/08/08 06:48:04;;;;;;;;;8.50;8.50;;;;;19.67;46.11;102012.94;6314790;22;47013;-87
2022/08/08 06:50:31;;;;;;;;;7.50;7.50;;;;;19.78;46.56;102029.63;6314867;22;45279;-88
2022/08/08 06:53:01;;;;;;;;;11.00;8.75;;;;;19.74;46.19;102009.25;6315741;22;44830;-85
2022/08/08 06:55:28;;;;;;;;;9.75;8.25;;;;;19.88;46.06;102022.28;6341834;22;45191;-85
2022/08/08 06:57:54;;;;;;;;;8.00;8.00;;;;;19.87;46.13;102009.84;6344452;22;45787;-90
2022/08/08 07:00:19;;;;;;;;;7.75;7.00;;;;;19.86;46.08;102006.31;6316370;22;45420;-91
2022/08/08 07:02:52;;;;;;;;;9.75;7.50;;;;;19.94;46.31;102020.38;6318014;22;45439;-89
2022/08/08 07:05:21;;;;;;;;;9.25;9.00;;;;;20.07;46.00;102030.78;6317006;22;45397;-91
2022/08/08 07:08:07;;;;;;;;;10.00;8.75;;;;;20.13;46.17;102034.22;6344538;22;45272;-87
2022/08/08 07:10:37;;;;;;;;;7.50;6.75;;;;;20.18;46.03;102036.75;6342849;22;45357;-86
2022/08/08 07:13:05;;;;;;;;;8.75;8.00;;;;;20.20;45.91;102030.47;6314597;22;45165;-84
2022/08/08 07:15:43;;;;;;;;;9.00;8.50;;;;;20.27;45.70;102029.41;6314752;22;45409;-85
2022/08/08 07:18:18;;;;;;;;;7.50;6.75;;;;;20.43;45.53;102054.00;6313376;22;47145;-84
2022/08/08 07:20:51;;;;;;;;;10.00;9.50;;;;;20.46;45.23;102035.19;6312254;22;45271;-83
2022/08/08 07:23:34;;;;;;;;;6.75;6.75;;;;;20.54;45.31;102036.84;6341832;22;45246;-84
2022/08/08 07:26:02;;;;;;;;;8.00;7.25;;;;;;;;6342454;22;45382;-83
2022/08/08 07:28:27;;;;;;;;;9.75;8.75;;;;;20.63;44.78;102033.94;6313928;22;47864;-82
2022/08/08 07:30:54;;;;;;;;;8.50;7.75;;;;;20.80;44.98;102041.56;6341357;22;45373;-83
2022/08/08 07:33:22;;;;;;;;;9.50;8.00;;;;;20.81;44.56;102038.81;6313770;22;45333;-82
2022/08/08 07:35:48;;;;;;;;;9.00;7.25;;;;;20.92;44.40;102044.78;6313509;22;45968;-83
2022/08/08 07:38:16;;;;;;;;;6.50;5.75;;;;;21.09;44.32;102059.50;6312238;22;46694;-82
2022/08/08 07:40:44;;;;;;;;;8.50;7.25;;;;;21.18;43.88;102050.38;6339071;22;45350;-83
2022/08/08 07:43:10;;;;;;;;;8.75;8.00;;;;;21.32;43.93;102062.47;6313911;22;45302;-84
2022/08/08 07:45:36;;;;;;;;;9.50;9.50;;;;;21.32;43.23;102035.66;6313262;22;45448;-84
2022/08/08 07:48:02;;;;;;;;;5.25;5.25;;;;;21.50;43.24;102055.75;6341773;22;45269;-84
2022/08/08 07:50:28;;;;;;;;;7.75;7.25;;;;;21.49;42.75;102037.94;6312788;22;45287;-84
2022/08/08 07:52:59;;;;;;;;;12.25;7.50;;;;;21.67;42.93;102055.25;6313517;22;45418;-84
2022/08/08 07:55:27;;;;;;;;;10.00;7.50;;;;;21.76;43.04;102060.38;6342496;22;45339;-84
2022/08/08 07:58:00;;;;;;;;;8.25;8.00;;;;;21.83;42.25;102049.44;6313318;22;46965;-84
2022/08/08 08:00:33;;;;;;;;;7.25;7.25;;;;;21.87;42.43;102035.91;6341390;22;45381;-84
2022/08/08 08:03:05;;;;;;;;;8.50;7.75;;;;;22.05;42.52;102052.34;6313153;22;45224;-84
2022/08/08 08:05:39;;;;;;;;;7.50;7.00;;;;;22.08;41.76;102034.38;6313591;22;45373;-84
2022/08/08 08:08:13;;;;;;;;;11.00;9.00;;;;;22.24;41.72;102048.22;6314189;22;46255;-84
2022/08/08 08:10:39;;;;;;;;;10.50;9.50;;;;;22.27;41.75;102040.09;6313502;22;45139;-85
2022/08/08 08:13:21;;;;;;;;;8.50;8.00;;;;;22.44;41.56;102052.94;6313585;22;45245;-87
2022/08/08 08:15:52;;;;;;;;;7.25;7.00;;;;;22.54;41.49;102046.34;6314149;22;45191;-85
2022/08/08 08:18:22;;;;;;;;;7.25;5.50;;;;;22.66;41.08;102051.28;6343584;22;46697;-87
2022/08/08 08:20:51;;;;;;;;;8.00;7.00;;;;;22.72;41.08;102046.66;6342772;22;45330;-88
2022/08/08 08:23:16;;;;;;;;;8.25;7.25;;;;;22.82;41.09;102056.16;6315235;22;45370;-88
2022/08/08 08:25:41;;;;;;;;;7.00;6.50;;;;;22.89;40.54;102050.53;6341422;22;45500;-88
2022/08/08 08:28:07;;;;;;;;;7.00;5.75;;;;;22.95;40.70;102048.56;6315052;22;48119;-87
2022/08/08 08:30:32;;;;;;;;;9.25;6.50;;;;;23.11;40.16;102055.19;6342591;22;45404;-88
2022/08/08 08:32:57;;;;;;;;;5.75;4.25;;;;;23.22;40.13;102050.31;6314771;22;45247;-88
2022/08/08 08:35:23;;;;;;;;;5.50;5.00;;;;;23.37;40.15;102058.78;6343491;22;45264;-84
2022/08/08 08:37:49;;;;;;;;;9.00;7.00;;;;;23.42;39.75;102051.41;6342139;22;45387;-84
2022/08/08 08:40:15;;;;;;;;;7.75;6.75;;;;;23.54;39.35;102051.81;6313167;22;45751;-89
2022/08/08 08:42:40;;;;;;;;;8.25;6.25;;;;;23.65;39.55;102048.72;6313903;22;45288;-88
2022/08/08 08:45:07;;;;;;;;;7.00;7.00;;;;;23.78;38.94;102051.88;6341525;22;45151;-85
2022/08/08 08:47:34;;;;;;;;;8.25;7.00;;;;;23.85;38.71;102053.41;6313728;22;47234;-88
2022/08/08 08:49:59;;;;;;;;;6.75;4.00;;;;;23.89;38.58;102044.25;6314646;22;45223;-87
2022/08/08 08:52:25;;;;;;;;;5.00;5.00;;;;;23.98;38.58;102048.44;6342284;22;45405;-88
2022/08/08 08:54:55;;;;;;;;;6.75;5.75;;;;;24.08;38.54;102048.91;6313876;22;45323;-89
2022/08/08 08:57:22;;;;;;;;;4.00;3.00;;;;;24.16;37.79;102055.78;6314412;22;47261;-88
2022/08/08 08:59:49;;;;;;;;;7.00;5.75;;;;;24.25;37.97;102051.84;6313388;22;46185;-89
2022/08/08 09:02:20;;;;;;;;;7.75;6.75;;;;;24.35;37.80;102055.91;6339074;22;45243;-89
2022/08/08 09:04:48;;;;;;;;;3.00;3.00;;;;;24.42;37.22;102060.09;6315789;22;45842;-89
2022/08/08 09:07:21;;;;;;;;;6.75;5.25;;;;;24.50;36.82;102050.88;6339662;22;46814;-89
2022/08/08 09:09:49;;;;;;;;;4.75;4.75;;;;;24.56;37.08;102047.91;6314726;22;45963;-88
2022/08/08 09:12:19;;;;;;;;;5.25;5.25;;;;;24.64;36.47;102046.66;6309893;22;45346;-89
2022/08/08 09:14:45;;;;;;;;;4.75;4.75;;;;;24.72;36.81;102043.63;6341626;22;45477;-88
2022/08/08 09:17:15;;;;;;;;;4.50;4.50;;;;;24.83;36.31;102052.16;6341959;22;45219;-86
2022/08/08 09:19:40;;;;;;;;;8.00;6.50;;;;;24.91;35.78;102057.19;6314188;22;45481;-87
2022/08/08 09:22:06;;;;;;;;;8.75;5.50;;;;;24.96;36.12;102049.78;6342245;22;45299;-88
2022/08/08 09:24:34;;;;;;;;;5.75;5.75;;;;;25.01;35.53;102045.06;6313431;22;45295;-90
2022/08/08 09:26:59;;;;;;;;;5.50;5.50;;;;;25.11;36.06;102056.34;6314487;22;45384;-90
2022/08/08 09:29:26;;;;;;;;;6.00;6.00;;;;;25.16;35.89;102048.09;6314032;22;45221;-89
2022/08/08 09:31:53;;;;;;;;;6.00;5.00;;;;;25.20;35.57;102047.00;6343325;22;45214;-88
2022/08/08 09:34:23;;;;;;;;;5.00;4.67;;;;;25.14;34.96;102034.63;6314247;22;45370;-89
2022/08/08 09:36:57;;;;;;;;;7.00;6.00;;;;;25.19;35.22;102029.09;6314196;22;46977;-88
2022/08/08 09:39:27;;;;;;;;;3.25;3.25;;;;;25.24;34.84;102016.28;6314152;22;46004;-88
2022/08/08 09:42:01;;;;;;;;;6.50;5.50;;;;;25.35;34.58;102030.16;6313811;22;45197;-88
2022/08/08 09:45:05;;;;;;;;;5.00;4.67;;;;;25.49;35.12;102034.91;6310750;22;45212;-85
2022/08/08 09:47:32;;;;;;;;;4.00;4.00;;;;;25.53;34.84;102029.31;6274952;22;47239;-89
2022/08/08 09:49:58;;;;;;;;;6.00;6.00;;;;;25.60;34.72;102034.41;6312107;22;45292;-90
2022/08/08 09:52:29;;;;;;;;;6.75;5.00;;;;;25.71;34.41;102027.59;6341558;22;45275;-88
2022/08/08 09:54:55;;;;;;;;;5.50;5.50;;;;;25.81;34.20;102021.75;6311890;22;45328;-88
2022/08/08 09:57:48;;;;;;;;;6.75;6.25;;;;;25.92;33.44;102024.84;6311458;22;46904;-88
2022/08/08 10:00:16;;;;;;;;;6.00;5.00;;;;;26.02;33.40;102025.28;6336881;22;45305;-89
2022/08/08 10:02:47;;;;;;;;;5.50;4.75;;;;;26.06;33.47;102018.78;6311922;22;45322;-90
2022/08/08 10:05:17;;;;;;;;;6.25;6.25;;;;;26.17;33.59;102027.25;6312561;22;45953;-87
2022/08/08 10:08:04;;;;;;;;;5.00;5.00;;;;;26.27;32.88;102020.41;6339303;22;48980;-90
2022/08/08 10:10:30;;;;;;;;;5.67;5.00;;;;;26.36;33.06;102028.09;6339668;22;45290;-88
2022/08/08 10:12:56;;;;;;;;;4.25;4.00;;;;;26.43;32.98;102019.66;6314190;22;45449;-83
2022/08/08 10:15:24;;;;;;;;;5.25;4.75;;;;;26.52;32.54;102014.72;6338999;22;45443;-80
2022/08/08 10:17:52;;;;;;;;;5.00;4.75;;;;;26.64;32.29;102012.34;6340208;22;45367;-78
2022/08/08 10:20:18;;;;;;;;;8.00;6.75;;;;;26.72;32.08;102016.41;6312262;22;45868;-79
2022/08/08 10:22:54;;;;;;;;;5.00;5.00;;;;;26.77;32.31;102005.34;6312731;22;45185;-79
2022/08/08 10:25:21;;;;;;;;;4.25;4.25;;;;;26.89;32.20;102007.44;6312285;22;45468;-79
2022/08/08 10:27:49;;;;;;;;;5.00;5.00;;;;;27.00;32.08;101994.22;6312684;22;47657;-81
2022/08/08 10:30:21;;;;;;;;;5.25;5.25;;;;;27.14;31.42;101995.31;6338799;22;45231;-80
2022/08/08 10:32:58;;;;;;;;;4.33;4.33;;;;;27.26;31.37;101995.56;6312530;22;45299;-80
2022/08/08 10:35:31;;;;;;;;;5.00;5.00;;;;;27.42;30.82;102005.53;6341023;22;45441;-80
2022/08/08 10:38:08;;;;;;;;;4.67;3.33;;;;;27.58;30.07;102002.88;6312833;22;47217;-80
2022/08/08 10:40:37;;;;;;;;;3.75;3.75;;;;;27.73;30.03;102003.84;6311330;22;45574;-82
2022/08/08 10:43:04;;;;;;;;;4.25;4.25;;;;;27.90;29.61;102003.78;6312881;22;45307;-83
2022/08/08 10:45:41;;;;;;;;;4.25;4.25;;;;;28.06;29.54;101995.69;6312363;22;45648;-83
2022/08/08 10:48:10;;;;;;;;;4.25;4.25;;;;;28.18;29.88;102002.25;6338766;22;47085;-81
2022/08/08 10:50:37;;;;;;;;;5.00;5.00;;;;;28.24;29.11;102004.59;6340544;22;45227;-79
2022/08/08 10:53:11;;;;;;;;;4.67;4.67;;;;;28.25;29.08;101999.06;6312666;22;45279;-80
2022/08/08 10:55:37;;;;;;;;;5.33;5.33;;;;;28.27;29.03;101989.00;6340684;22;45184;-80
2022/08/08 10:58:08;;;;;;;;;3.67;3.67;;;;;28.35;28.58;101993.97;6339945;22;46165;-79
2022/08/08 11:00:40;;;;;;;;;5.00;4.00;;;;;28.42;28.61;102002.66;6338199;22;45281;-78
2022/08/08 11:03:13;;;;;;;;;4.33;4.33;;;;;28.42;28.29;101997.22;6341454;22;45178;-79
2022/08/08 11:05:49;;;;;;;;;6.00;5.00;;;;;28.50;28.26;102001.25;6341026;22;45639;-80
2022/08/08 11:08:25;;;;;;;;;6.33;6.33;;;;;28.59;27.81;102003.41;6341894;22;46506;-87
2022/08/08 11:11:10;;;;;;;;;3.00;3.00;;;;;28.72;27.52;102002.69;6340190;22;45270;-88
2022/08/08 11:13:41;;;;;;;;;6.00;5.00;;;;;28.82;27.35;102000.28;6340751;22;45290;-86
2022/08/08 11:16:08;;;;;;;;;5.50;4.50;;;;;28.95;27.36;101987.69;6313761;22;45168;-86
2022/08/08 11:18:35;;;;;;;;;7.75;4.25;;;;;29.10;27.50;101980.50;6340385;22;47293;-86
2022/08/08 11:21:03;;;;;;;;;4.50;4.50;;;;;29.10;26.82;101978.66;6342276;22;45301;-87
2022/08/08 11:23:33;;;;;;;;;3.50;3.50;;;;;29.18;27.21;101983.59;6313839;22;45297;-87
2022/08/08 11:26:04;;;;;;;;;4.25;4.25;;;;;29.27;27.01;101988.47;6313920;22;45630;-86
2022/08/08 11:28:33;;;;;;;;;5.25;5.25;;;;;29.39;27.05;101987.69;6315567;22;48161;-86
2022/08/08 11:31:01;;;;;;;;;3.75;3.00;;;;;29.49;26.44;101987.13;6341766;22;45202;-87
2022/08/08 11:33:28;;;;;;;;;6.00;6.00;;;;;29.54;26.32;101991.28;6313792;22;45307;-87
2022/08/08 11:35:55;;;;;;;;;6.00;5.00;;;;;29.55;26.06;101986.72;6314121;22;45369;-86
2022/08/08 11:38:22;;;;;;;;;4.00;4.00;;;;;29.49;25.72;101971.69;6313874;22;46430;-85
2022/08/08 11:40:48;;;;;;;;;5.25;5.25;;;;;29.61;26.26;101989.88;6313943;22;45209;-87
2022/08/08 11:43:15;;;;;;;;;5.50;4.00;;;;;29.73;25.94;101980.13;6314445;22;45255;-87
2022/08/08 11:45:41;;;;;;;;;5.33;3.67;;;;;29.81;25.54;101969.66;6313900;22;45454;-87
2022/08/08 11:48:07;;;;;;;;;6.00;5.00;;;;;29.89;25.26;101975.44;6342119;22;45401;-86
2022/08/08 11:50:34;;;;;;;;;5.00;4.00;;;;;29.90;25.17;101955.44;6313208;22;45357;-83
2022/08/08 11:53:00;;;;;;;;;4.50;3.50;;;;;29.91;25.02;101953.59;6313908;22;45273;-86
2022/08/08 11:55:26;;;;;;;;;6.25;5.50;;;;;30.03;25.04;101958.22;6340908;22;45464;-87
2022/08/08 11:58:08;;;;;;;;;5.75;4.50;;;;;30.23;24.39;101966.91;6343033;22;46769;-90